createdAt,value
2023-05-17T00:02:18.382Z,13.63
2023-05-17T00:04:45.655Z,13.85
2023-05-17T00:07:12.398Z,13.90
2023-05-17T00:09:39.106Z,13.85
2023-05-17T00:12:06.018Z,13.78
2023-05-17T00:14:32.768Z,13.69
2023-05-17T00:16:59.457Z,13.76
2023-05-17T00:19:26.225Z,13.78
2023-05-17T00:21:53.143Z,13.76
2023-05-17T00:24:20.144Z,13.81
2023-05-17T00:26:47.051Z,13.80
2023-05-17T00:29:13.670Z,13.73
2023-05-17T00:31:41.373Z,13.77
2023-05-17T00:34:08.128Z,13.79
2023-05-17T00:36:34.861Z,13.78
2023-05-17T00:39:01.526Z,13.72
2023-05-17T00:41:28.332Z,13.72
2023-05-17T00:43:55.780Z,13.62
2023-05-17T00:46:22.786Z,13.71
2023-05-17T00:48:49.644Z,13.65
2023-05-17T00:51:19.292Z,13.49
2023-05-17T00:53:46.360Z,13.33
2023-05-17T00:56:13.548Z,13.41
2023-05-17T00:58:40.964Z,13.47
2023-05-17T01:01:07.581Z,13.45
2023-05-17T01:03:34.641Z,13.36
2023-05-17T01:06:02.060Z,13.18
2023-05-17T01:08:30.166Z,13.02
2023-05-17T01:11:21.684Z,13.20
2023-05-17T01:14:10.145Z,13.13
2023-05-17T01:16:55.827Z,13.08
2023-05-17T01:19:44.146Z,13.22
2023-05-17T01:22:28.878Z,13.08
2023-05-17T01:25:11.072Z,12.90
2023-05-17T01:27:41.534Z,12.65
2023-05-17T01:30:18.490Z,12.71
2023-05-17T01:32:45.757Z,12.63
2023-05-17T01:35:13.048Z,12.53
2023-05-17T01:37:40.197Z,12.49
2023-05-17T01:40:09.164Z,12.53
2023-05-17T01:42:42.700Z,12.45
2023-05-17T01:45:16.904Z,12.57
2023-05-17T01:47:53.421Z,12.64
2023-05-17T01:50:24.293Z,12.67
2023-05-17T01:52:59.550Z,12.70
2023-05-17T01:55:38.113Z,12.66
2023-05-17T01:58:08.592Z,12.68
2023-05-17T02:00:38.283Z,12.70
2023-05-17T02:03:05.055Z,12.58
2023-05-17T02:05:31.907Z,12.63
2023-05-17T02:07:58.724Z,12.74
2023-05-17T02:10:25.390Z,12.73
2023-05-17T02:12:52.235Z,12.70
2023-05-17T02:15:22.482Z,12.65
2023-05-17T02:17:49.791Z,12.30
2023-05-17T02:20:16.634Z,12.56
2023-05-17T02:22:43.634Z,12.14
2023-05-17T02:25:10.466Z,12.57
2023-05-17T02:27:37.564Z,12.55
2023-05-17T02:30:04.964Z,12.22
2023-05-17T02:32:32.222Z,12.38
2023-05-17T02:34:59.419Z,12.16
2023-05-17T02:37:27.541Z,12.15
2023-05-17T02:39:54.603Z,12.43
2023-05-17T02:42:21.477Z,12.40
2023-05-17T02:44:52.931Z,12.33
2023-05-17T02:47:22.601Z,12.03
2023-05-17T02:49:49.510Z,12.11
2023-05-17T02:52:19.401Z,11.81
2023-05-17T02:54:47.918Z,11.58
2023-05-17T02:57:14.869Z,11.85
2023-05-17T02:59:41.564Z,11.64
2023-05-17T03:02:08.477Z,11.50
2023-05-17T03:04:35.565Z,11.56
2023-05-17T03:07:04.366Z,11.61
2023-05-17T03:09:37.368Z,11.56
2023-05-17T03:12:04.522Z,11.55
2023-05-17T03:14:31.268Z,11.56
2023-05-17T03:16:57.984Z,11.70
2023-05-17T03:19:25.056Z,11.65
2023-05-17T03:21:51.758Z,11.70
2023-05-17T03:24:18.824Z,11.44
2023-05-17T03:26:45.672Z,11.59
2023-05-17T03:29:12.403Z,11.79
2023-05-17T03:31:39.089Z,11.76
2023-05-17T03:34:06.056Z,11.88
2023-05-17T03:36:35.568Z,11.95
2023-05-17T03:39:02.495Z,11.81
2023-05-17T03:41:29.135Z,11.93
2023-05-17T03:43:56.176Z,12.02
2023-05-17T03:46:22.929Z,11.93
2023-05-17T03:48:49.814Z,12.08
2023-05-17T03:51:16.922Z,11.98
2023-05-17T03:53:43.699Z,12.36
2023-05-17T03:56:11.138Z,12.45
2023-05-17T03:58:38.460Z,12.63
2023-05-17T04:01:05.936Z,12.61
2023-05-17T04:03:32.917Z,12.75
2023-05-17T04:06:07.441Z,12.79
2023-05-17T04:08:39.808Z,12.64
2023-05-17T04:11:15.559Z,12.79
2023-05-17T04:13:43.602Z,12.86
2023-05-17T04:16:10.888Z,12.96
2023-05-17T04:18:39.265Z,13.02
2023-05-17T04:21:06.739Z,13.46
2023-05-17T04:23:34.838Z,13.95
2023-05-17T04:26:01.760Z,14.12
2023-05-17T04:28:28.889Z,15.01
2023-05-17T04:30:56.381Z,14.74
2023-05-17T04:33:24.770Z,14.44
2023-05-17T04:35:55.199Z,14.27
2023-05-17T04:38:22.224Z,14.22
2023-05-17T04:40:49.016Z,14.39
2023-05-17T04:43:18.470Z,14.78
2023-05-17T04:45:45.735Z,15.22
2023-05-17T04:48:13.200Z,14.81
2023-05-17T04:50:40.296Z,16.23
2023-05-17T04:53:07.132Z,16.54
2023-05-17T04:55:33.883Z,17.05
2023-05-17T04:58:01.240Z,16.58
2023-05-17T05:00:28.096Z,16.38
2023-05-17T05:02:55.325Z,16.87
2023-05-17T05:05:22.129Z,16.75
2023-05-17T05:07:49.247Z,17.08
2023-05-17T05:10:16.448Z,16.79
2023-05-17T05:12:43.423Z,17.11
2023-05-17T05:15:11.104Z,17.52
2023-05-17T05:17:38.255Z,18.20
2023-05-17T05:20:05.701Z,18.24
2023-05-17T05:22:32.518Z,18.60
2023-05-17T05:24:59.280Z,19.05
2023-05-17T05:27:26.431Z,18.77
2023-05-17T05:29:54.709Z,19.27
2023-05-17T05:32:21.424Z,19.44
2023-05-17T05:34:48.510Z,19.51
2023-05-17T05:37:17.243Z,19.28
2023-05-17T05:39:46.303Z,19.01
2023-05-17T05:42:14.961Z,18.89
2023-05-17T05:44:42.199Z,18.98
2023-05-17T05:47:09.185Z,18.62
2023-05-17T05:49:36.010Z,18.16
2023-05-17T05:52:04.152Z,17.90
2023-05-17T05:54:31.290Z,18.32
2023-05-17T05:56:58.387Z,18.90
2023-05-17T05:59:25.372Z,18.85
2023-05-17T06:01:52.413Z,18.18
2023-05-17T06:04:21.008Z,17.61
2023-05-17T06:06:49.568Z,18.26
2023-05-17T06:09:17.071Z,18.23
2023-05-17T06:11:43.884Z,18.11
2023-05-17T06:14:11.278Z,17.89
2023-05-17T06:16:38.222Z,18.00
2023-05-17T06:19:05.087Z,17.93
2023-05-17T06:21:32.027Z,17.97
2023-05-17T06:23:59.205Z,18.09
2023-05-17T06:26:26.130Z,17.85
2023-05-17T06:28:52.922Z,18.21
2023-05-17T06:31:22.944Z,18.30
2023-05-17T06:33:49.935Z,18.17
2023-05-17T06:36:16.902Z,17.93
2023-05-17T06:38:43.897Z,18.72
2023-05-17T06:41:13.178Z,19.12
2023-05-17T06:43:40.038Z,18.65
2023-05-17T06:46:06.771Z,18.40
2023-05-17T06:48:33.795Z,18.44
2023-05-17T06:51:00.900Z,18.21
2023-05-17T06:53:27.848Z,18.36
2023-05-17T06:55:54.698Z,18.32
2023-05-17T06:58:21.581Z,18.02
2023-05-17T07:00:48.435Z,18.06
2023-05-17T07:03:15.339Z,17.60
2023-05-17T07:05:42.496Z,17.25
2023-05-17T07:08:09.300Z,17.58
2023-05-17T07:10:36.125Z,17.53
2023-05-17T07:13:02.904Z,17.72
2023-05-17T07:15:30.215Z,17.78
2023-05-17T07:17:57.381Z,17.52
2023-05-17T07:20:24.376Z,17.91
2023-05-17T07:22:51.183Z,17.70
2023-05-17T07:25:19.066Z,17.80
2023-05-17T07:27:46.155Z,18.20
2023-05-17T07:30:13.359Z,17.80
2023-05-17T07:32:40.462Z,18.03
2023-05-17T07:35:07.784Z,17.68
2023-05-17T07:37:34.756Z,18.22
2023-05-17T07:40:01.785Z,17.82
2023-05-17T07:42:28.682Z,17.23
2023-05-17T07:44:55.528Z,17.63
2023-05-17T07:47:22.366Z,17.97
2023-05-17T07:49:49.214Z,17.85
2023-05-17T07:52:16.534Z,18.01
2023-05-17T07:54:43.279Z,18.38
2023-05-17T07:57:10.558Z,18.12
2023-05-17T07:59:37.355Z,18.05
2023-05-17T08:02:04.338Z,17.83
2023-05-17T08:04:31.277Z,17.59
2023-05-17T08:06:58.315Z,17.81
2023-05-17T08:09:25.102Z,18.31
2023-05-17T08:11:54.613Z,17.76
2023-05-17T08:14:24.728Z,18.08
2023-05-17T08:16:52.150Z,18.49
2023-05-17T08:19:19.653Z,18.76
2023-05-17T08:21:46.930Z,18.41
2023-05-17T08:24:13.781Z,18.37
2023-05-17T08:26:41.170Z,18.58
2023-05-17T08:29:08.042Z,18.15
2023-05-17T08:31:35.449Z,18.53
2023-05-17T08:34:02.270Z,18.20
2023-05-17T08:36:29.216Z,18.58
2023-05-17T08:38:56.228Z,18.69
2023-05-17T08:41:23.114Z,19.06
2023-05-17T08:43:51.186Z,18.86
2023-05-17T08:46:23.791Z,19.01
2023-05-17T08:48:53.149Z,18.74
2023-05-17T08:51:21.156Z,19.08
2023-05-17T08:53:48.185Z,19.16
2023-05-17T08:56:18.711Z,19.30
2023-05-17T09:01:18.375Z,19.26
2023-05-17T09:03:49.143Z,19.32
2023-05-17T09:06:23.809Z,19.11
2023-05-17T09:08:53.408Z,19.03
2023-05-17T09:11:30.755Z,18.78
2023-05-17T09:14:02.159Z,19.35
2023-05-17T09:16:33.633Z,19.23
2023-05-17T09:19:01.441Z,19.23
2023-05-17T09:21:31.005Z,19.15
2023-05-17T09:26:43.251Z,19.29
2023-05-17T09:29:16.822Z,18.95
2023-05-17T09:31:44.756Z,18.56
2023-05-17T09:34:12.246Z,18.62
2023-05-17T09:36:43.671Z,18.75
2023-05-17T09:39:13.179Z,18.59
2023-05-17T09:41:48.400Z,19.20
2023-05-17T09:44:15.945Z,19.34
2023-05-17T09:46:45.521Z,19.08
2023-05-17T09:49:13.149Z,19.82
2023-05-17T09:51:45.802Z,19.06
2023-05-17T09:54:13.506Z,19.44
2023-05-17T09:56:41.234Z,19.69
2023-05-17T09:59:13.182Z,20.00
2023-05-17T10:01:43.477Z,20.04
2023-05-17T10:04:11.514Z,20.16
2023-05-17T10:09:14.730Z,19.72
2023-05-17T10:11:46.136Z,19.63
2023-05-17T10:14:24.455Z,19.63
2023-05-17T10:16:52.289Z,19.15
2023-05-17T10:19:21.506Z,19.45
2023-05-17T10:21:51.195Z,19.64
2023-05-17T10:24:19.444Z,19.68
2023-05-17T10:26:47.832Z,19.31
2023-05-17T10:29:16.145Z,19.14
2023-05-17T10:31:43.589Z,19.27
2023-05-17T10:34:12.559Z,19.22
2023-05-17T10:36:40.677Z,18.98
2023-05-17T10:39:10.432Z,19.25
2023-05-17T10:41:42.360Z,18.79
2023-05-17T10:44:12.089Z,18.84
2023-05-17T10:46:39.510Z,18.48
2023-05-17T10:49:07.250Z,18.25
2023-05-17T10:51:37.869Z,17.95
2023-05-17T10:54:12.035Z,18.19
2023-05-17T10:56:51.412Z,17.82
2023-05-17T10:59:24.555Z,18.21
2023-05-17T11:01:56.063Z,17.87
2023-05-17T11:04:33.869Z,18.31
2023-05-17T11:07:19.393Z,18.41
2023-05-17T11:10:08.807Z,18.39
2023-05-17T11:12:40.235Z,18.14
2023-05-17T11:15:08.659Z,18.29
2023-05-17T11:17:57.851Z,18.27
2023-05-17T11:20:28.055Z,18.27
2023-05-17T11:23:06.204Z,18.33
2023-05-17T11:25:36.269Z,18.47
2023-05-17T11:28:36.481Z,18.63
2023-05-17T11:31:03.730Z,18.32
2023-05-17T11:33:40.447Z,18.12
2023-05-17T11:36:15.709Z,17.96
2023-05-17T11:38:42.740Z,18.07
2023-05-17T11:43:53.480Z,17.97
2023-05-17T11:46:22.651Z,17.75
2023-05-17T11:48:53.993Z,17.80
2023-05-17T11:51:24.862Z,17.88
2023-05-17T11:53:56.064Z,18.06
2023-05-17T11:56:39.583Z,17.63
2023-05-17T11:59:10.338Z,17.66
2023-05-17T12:01:47.747Z,17.54
2023-05-17T12:04:14.868Z,17.50
2023-05-17T12:06:42.713Z,17.38
2023-05-17T12:09:11.346Z,17.61
2023-05-17T12:11:39.624Z,17.53
2023-05-17T12:14:07.425Z,18.19
2023-05-17T12:16:41.716Z,17.88
2023-05-17T12:19:19.120Z,18.05
2023-05-17T12:21:46.737Z,18.08
2023-05-17T12:24:14.261Z,17.98
2023-05-17T12:26:45.202Z,17.96
2023-05-17T12:29:14.184Z,18.10
2023-05-17T12:31:43.508Z,17.79
2023-05-17T12:34:12.917Z,18.32
2023-05-17T12:36:40.840Z,18.60
2023-05-17T12:39:10.199Z,18.25
2023-05-17T12:41:38.739Z,18.05
2023-05-17T12:44:15.524Z,17.80
2023-05-17T12:46:43.975Z,17.83
2023-05-17T12:49:12.466Z,18.09
2023-05-17T12:51:46.223Z,17.99
2023-05-17T12:54:34.483Z,17.59
2023-05-17T12:57:13.003Z,17.51
2023-05-17T12:59:50.225Z,17.64
2023-05-17T13:02:19.539Z,17.68
2023-05-17T13:04:46.689Z,17.69
2023-05-17T13:07:21.895Z,17.58
2023-05-17T13:09:49.565Z,17.61
2023-05-17T13:12:39.289Z,17.69
2023-05-17T13:15:07.862Z,17.72
2023-05-17T13:17:37.102Z,17.60
2023-05-17T13:20:06.457Z,18.14
2023-05-17T13:22:34.715Z,18.07
2023-05-17T13:25:03.333Z,18.07
2023-05-17T13:27:30.455Z,17.89
2023-05-17T13:29:57.598Z,18.07
2023-05-17T13:32:24.400Z,17.55
2023-05-17T13:34:51.642Z,17.58
2023-05-17T13:37:18.712Z,17.53
2023-05-17T13:39:45.941Z,17.45
2023-05-17T13:42:15.409Z,17.25
2023-05-17T13:44:42.180Z,17.30
2023-05-17T13:47:08.997Z,17.26
2023-05-17T13:49:36.292Z,17.23
2023-05-17T13:52:03.754Z,17.18
2023-05-17T13:54:30.635Z,16.85
2023-05-17T13:56:57.705Z,17.17
2023-05-17T13:59:24.609Z,17.36
2023-05-17T14:01:51.905Z,17.45
2023-05-17T14:04:20.122Z,17.31
2023-05-17T14:06:48.941Z,16.90
2023-05-17T14:09:16.291Z,16.93
2023-05-17T14:11:43.422Z,16.87
2023-05-17T14:14:10.222Z,16.59
2023-05-17T14:16:37.707Z,16.59
2023-05-17T14:19:04.949Z,16.76
2023-05-17T14:21:32.624Z,16.59
2023-05-17T14:23:59.469Z,16.34
2023-05-17T14:26:26.852Z,16.25
2023-05-17T14:28:56.868Z,16.03
2023-05-17T14:31:23.894Z,15.81
2023-05-17T14:33:51.577Z,16.08
2023-05-17T14:36:21.532Z,15.79
2023-05-17T14:38:48.471Z,15.70
2023-05-17T14:41:18.659Z,15.78
2023-05-17T14:43:47.757Z,15.95
2023-05-17T14:46:17.563Z,15.94
2023-05-17T14:48:44.658Z,15.74
2023-05-17T14:51:12.339Z,15.89
2023-05-17T14:53:38.998Z,15.85
2023-05-17T14:56:06.045Z,15.81
2023-05-17T14:58:36.445Z,15.63
2023-05-17T15:01:05.511Z,15.13
2023-05-17T15:03:35.317Z,15.30
2023-05-17T15:06:06.301Z,15.22
2023-05-17T15:08:35.602Z,14.93
2023-05-17T15:11:02.420Z,14.99
2023-05-17T15:13:29.117Z,14.88
2023-05-17T15:15:56.146Z,14.88
2023-05-17T15:18:23.119Z,14.91
2023-05-17T15:20:50.352Z,14.72
2023-05-17T15:23:17.537Z,14.42
2023-05-17T15:25:44.532Z,14.44
2023-05-17T15:28:11.906Z,14.65
2023-05-17T15:30:38.923Z,14.12
2023-05-17T15:33:06.777Z,14.28
2023-05-17T15:35:33.658Z,14.55
2023-05-17T15:38:08.988Z,14.66
2023-05-17T15:40:36.391Z,14.57
2023-05-17T15:43:03.193Z,14.56
2023-05-17T15:45:30.360Z,14.57
2023-05-17T15:47:57.560Z,14.48
2023-05-17T15:50:25.111Z,14.28
2023-05-17T15:52:52.063Z,14.35
2023-05-17T15:55:22.121Z,14.12
2023-05-17T15:57:49.160Z,14.31
2023-05-17T16:00:16.482Z,14.22
2023-05-17T16:02:43.501Z,14.24
2023-05-17T16:05:12.068Z,14.31
2023-05-17T16:07:39.220Z,13.97
2023-05-17T16:10:06.578Z,14.29
2023-05-17T16:12:33.451Z,14.30
2023-05-17T16:15:00.721Z,14.37
2023-05-17T16:17:27.496Z,14.15
2023-05-17T16:19:54.295Z,14.40
2023-05-17T16:22:21.645Z,14.31
2023-05-17T16:24:52.313Z,14.25
2023-05-17T16:27:19.287Z,14.35
2023-05-17T16:29:46.013Z,14.35
2023-05-17T16:32:13.104Z,14.26
2023-05-17T16:34:39.874Z,14.18
2023-05-17T16:37:07.591Z,14.07
2023-05-17T16:39:34.485Z,13.91
2023-05-17T16:42:02.186Z,13.97
2023-05-17T16:44:28.999Z,13.83
2023-05-17T16:46:55.983Z,13.61
2023-05-17T16:49:23.337Z,13.34
2023-05-17T16:51:52.083Z,13.06
2023-05-17T16:54:19.292Z,12.76
2023-05-17T16:56:50.677Z,12.24
2023-05-17T16:59:19.450Z,12.28
2023-05-17T17:01:46.815Z,11.89
2023-05-17T17:04:14.305Z,12.01
2023-05-17T17:06:41.404Z,11.57
2023-05-17T17:09:09.469Z,11.07
2023-05-17T17:11:36.626Z,11.05
2023-05-17T17:14:04.527Z,11.05
2023-05-17T17:16:32.768Z,11.58
2023-05-17T17:19:00.004Z,11.48
2023-05-17T17:21:27.931Z,10.84
2023-05-17T17:23:55.149Z,11.26
2023-05-17T17:26:22.189Z,11.44
2023-05-17T17:28:49.088Z,11.25
2023-05-17T17:31:18.165Z,11.61
2023-05-17T17:33:45.318Z,11.44
2023-05-17T17:36:19.951Z,11.10
2023-05-17T17:38:47.438Z,10.79
2023-05-17T17:41:14.561Z,11.29
2023-05-17T17:43:43.046Z,11.06
2023-05-17T17:46:10.604Z,11.31
2023-05-17T17:48:38.318Z,11.48
2023-05-17T17:51:05.812Z,11.48
2023-05-17T17:53:33.072Z,11.09
2023-05-17T17:55:59.872Z,10.92
2023-05-17T17:58:30.003Z,11.21
2023-05-17T18:00:57.837Z,11.43
2023-05-17T18:03:25.510Z,11.41
2023-05-17T18:05:52.880Z,10.85
2023-05-17T18:08:20.511Z,11.47
2023-05-17T18:10:47.713Z,11.23
2023-05-17T18:13:14.872Z,11.43
2023-05-17T18:15:42.498Z,11.52
2023-05-17T18:18:09.750Z,11.32
2023-05-17T18:20:37.087Z,11.45
2023-05-17T18:23:04.331Z,11.36
2023-05-17T18:25:31.525Z,11.62
2023-05-17T18:27:58.476Z,11.39
2023-05-17T18:30:25.518Z,11.57
2023-05-17T18:32:52.930Z,11.80
2023-05-17T18:35:19.905Z,11.12
2023-05-17T18:37:47.709Z,11.10
2023-05-17T18:40:18.294Z,11.86
2023-05-17T18:42:45.826Z,11.36
2023-05-17T18:45:13.409Z,11.97
2023-05-17T18:47:40.898Z,11.96
2023-05-17T18:50:08.583Z,12.04
2023-05-17T18:52:35.839Z,11.79
2023-05-17T18:55:03.314Z,11.60
2023-05-17T18:57:30.873Z,11.48
2023-05-17T18:59:58.151Z,11.89
2023-05-17T19:02:28.537Z,11.76
2023-05-17T19:04:58.670Z,11.69
2023-05-17T19:07:25.637Z,12.26
2023-05-17T19:09:52.508Z,12.18
2023-05-17T19:12:19.494Z,12.21
2023-05-17T19:14:46.708Z,12.27
2023-05-17T19:17:13.764Z,12.16
2023-05-17T19:19:40.562Z,12.22
2023-05-17T19:22:07.831Z,12.18
2023-05-17T19:24:35.773Z,12.15
2023-05-17T19:27:03.002Z,11.91
2023-05-17T19:29:32.727Z,11.56
2023-05-17T19:31:59.731Z,11.64
2023-05-17T19:34:27.004Z,11.63
2023-05-17T19:36:54.227Z,11.62
2023-05-17T19:39:21.536Z,11.65
2023-05-17T19:41:48.506Z,11.69
2023-05-17T19:44:21.510Z,11.56
2023-05-17T19:46:48.889Z,11.38
2023-05-17T19:49:19.287Z,11.80
2023-05-17T19:51:46.963Z,11.54
2023-05-17T19:54:14.264Z,11.56
2023-05-17T19:56:41.131Z,11.61
2023-05-17T19:59:08.106Z,11.48
2023-05-17T20:01:34.979Z,11.38
2023-05-17T20:04:03.728Z,11.45
2023-05-17T20:06:31.085Z,10.91
2023-05-17T20:08:58.022Z,11.40
2023-05-17T20:11:24.909Z,11.34
2023-05-17T20:13:51.857Z,11.28
2023-05-17T20:16:18.947Z,11.28
2023-05-17T20:18:46.121Z,11.32
2023-05-17T20:21:19.802Z,11.30
2023-05-17T20:23:47.191Z,11.33
2023-05-17T20:26:19.698Z,11.31
2023-05-17T20:28:46.590Z,11.33
2023-05-17T20:31:13.713Z,11.38
2023-05-17T20:33:40.909Z,11.35
2023-05-17T20:36:08.660Z,11.38
2023-05-17T20:38:35.344Z,11.40
2023-05-17T20:41:02.129Z,11.45
2023-05-17T20:43:34.576Z,11.49
2023-05-17T20:46:01.637Z,11.29
2023-05-17T20:48:28.469Z,11.44
2023-05-17T20:50:55.147Z,11.51
2023-05-17T20:53:22.069Z,11.47
2023-05-17T20:55:49.412Z,11.40
2023-05-17T20:58:16.190Z,11.44
2023-05-17T21:00:42.993Z,11.46
2023-05-17T21:03:11.196Z,11.43
2023-05-17T21:05:38.663Z,11.52
2023-05-17T21:08:07.469Z,11.54
2023-05-17T21:10:36.171Z,11.65
2023-05-17T21:13:02.922Z,11.59
2023-05-17T21:15:29.720Z,11.75
2023-05-17T21:17:56.459Z,11.78
2023-05-17T21:20:24.698Z,11.63
2023-05-17T21:22:51.682Z,11.82
2023-05-17T21:25:18.354Z,11.93
2023-05-17T21:27:45.056Z,11.94
2023-05-17T21:30:11.869Z,11.84
2023-05-17T21:32:38.852Z,12.01
2023-05-17T21:35:06.046Z,11.93
2023-05-17T21:37:32.791Z,11.96
2023-05-17T21:39:59.477Z,11.91
2023-05-17T21:42:26.214Z,12.14
2023-05-17T21:44:52.898Z,12.11
2023-05-17T21:47:19.584Z,12.08
2023-05-17T21:49:46.396Z,12.05
2023-05-17T21:52:13.244Z,12.01
2023-05-17T21:54:41.351Z,11.89
2023-05-17T21:57:08.773Z,11.91
2023-05-17T21:59:35.688Z,11.96
2023-05-17T22:02:02.447Z,11.84
2023-05-17T22:04:29.174Z,11.92
2023-05-17T22:06:56.487Z,11.81
2023-05-17T22:09:23.203Z,11.92
2023-05-17T22:11:50.196Z,11.84
2023-05-17T22:14:17.005Z,11.84
2023-05-17T22:16:44.580Z,11.74
2023-05-17T22:19:12.491Z,11.77
2023-05-17T22:21:39.612Z,11.64
2023-05-17T22:24:06.821Z,11.72
2023-05-17T22:26:33.916Z,11.81
2023-05-17T22:29:00.675Z,11.36
2023-05-17T22:31:27.829Z,11.76
2023-05-17T22:33:54.844Z,11.73
2023-05-17T22:36:25.113Z,11.70
2023-05-17T22:38:51.966Z,11.64
2023-05-17T22:41:18.836Z,11.50
2023-05-17T22:43:45.646Z,11.58
2023-05-17T22:46:12.398Z,11.49
2023-05-17T22:48:40.661Z,11.53
2023-05-17T22:51:07.930Z,11.44
2023-05-17T22:53:35.132Z,11.11
2023-05-17T22:56:02.032Z,10.97
2023-05-17T22:58:29.024Z,11.14
2023-05-17T23:00:56.242Z,10.90
2023-05-17T23:03:23.162Z,11.47
2023-05-17T23:05:51.559Z,11.65
2023-05-17T23:08:18.560Z,11.46
2023-05-17T23:10:45.756Z,11.65
2023-05-17T23:13:13.036Z,11.61
2023-05-17T23:15:40.960Z,11.24
2023-05-17T23:18:08.135Z,11.35
2023-05-17T23:20:35.223Z,11.26
2023-05-17T23:23:02.179Z,11.29
2023-05-17T23:25:29.874Z,11.63
2023-05-17T23:27:58.207Z,11.25
2023-05-17T23:30:26.475Z,11.49
2023-05-17T23:32:55.325Z,11.19
2023-05-17T23:35:23.638Z,11.24
2023-05-17T23:37:51.082Z,11.52
2023-05-17T23:40:17.907Z,10.84
2023-05-17T23:42:44.687Z,11.04
2023-05-17T23:45:11.640Z,11.41
2023-05-17T23:47:40.768Z,11.11
2023-05-17T23:50:12.194Z,11.42
2023-05-17T23:52:39.310Z,11.54
2023-05-17T23:55:09.150Z,11.56
2023-05-17T23:57:36.079Z,11.54
